Hamlet, Nebraska
Current Conditions -  °F | °C
As of 12:53 PM on Saturday 25 Oct 2014 (Local Time) from KIML Reporting Station
Clear Clear  
Wind Chill: 73°   Ceiling: Unl
Heat Index: 73°   Visibility: 10mi
Dew Point: 36°   Wind: 5mph
Humidity: 26%   Direction: 100°E
Pressure: 30.12"   Gusts: NA
Location:  40.38°N, 101.23°W
Report Text: KIML 251753Z AUTO 10004KT 10SM CLR 23/02 A3012 RMK AO2 SLP183 T02280022 10228 20033 $
Loading
Personal Weather Stations






























Interactive Weather Map
Tropical Storm Tracking
New forecast layout! Learn more

10-Day Weather Forecast

Advertisements
Track Severe Weather on mobile